• Join FlightAware (Why Join?)
  • Login
  • US Flag 
09:44AM EDT


 

Airport Tracker/Info


-or-


 

Live Flight TrackerFlight Track Log ✈ RPA3392 ✈ 30-Jun-2013 ✈ KDCA - KALB

Flight Track Log - Related Links

Times and Time Zones

All times are in EDT time to prevent confusion due to time zone crossing. See the RPA3392 flight status page for this flight to view local times or setup timezone preferences in your user account.

Time Position Orientation Groundspeed Altitude Reporting Facility
EDT Latitude Longitude Course Direction KTS MPH feet Rate Location/Type
10:30PM 38.8167 -77.0333 81° East 153 176 1,200  Level Potomac TRACON
10:31PM 38.7514 -76.9544 137° Southeast 187 215 4,900 2,100 Climbing Washington Center
10:32PM 39.0328 -76.5181 67° East  Level FlightAware Approximate
10:32PM 38.7419 -76.8586 97° East 223 257 7,300  Level Washington Center
10:33PM 39.1034 -76.3476 61° Northeast  Level FlightAware Approximate
10:34PM 39.1541 -76.1758 83° East  Level FlightAware Approximate
10:34PM 38.8094 -76.7983 35° Northeast 218 251 9,600  Level Washington Center
10:35PM 39.1729 -75.9839 81° East  Level FlightAware Approximate
10:35PM 38.8892 -76.7436 28° Northeast 263 303 11,400  Level Washington Center
10:35PM 38.9750 -76.6836 29° Northeast 302 348 13,600 1,980 Climbing Washington Center
10:36PM 39.0219 -76.5775 60° Northeast 325 374 15,300 1,740 Climbing Washington Center
10:37PM 39.0728 -76.4633 60° Northeast 338 389 17,100 1,680 Climbing Washington Center
10:38PM 39.1361 -76.3569 52° Northeast 355 409 18,700 1,500 Climbing Washington Center
10:40PM 39.2014 -76.2478 52° Northeast 371 427 20,200 1,140 Climbing Washington Center
10:40PM 39.2664 -76.1464 50° Northeast 384 442 21,000 960 Climbing Washington Center
10:41PM 39.3356 -76.0264 53° Northeast 403 464 22,100 1,080 Climbing Washington Center
10:42PM 39.4069 -75.9031 53° Northeast 415 478 23,200 960 Climbing Washington Center
10:43PM 39.4758 -75.7769 55° Northeast 420 483 24,100 960 Climbing Washington Center
10:44PM 39.5511 -75.6508 52° Northeast 427 491 25,200 1,500 Climbing Washington Center
10:46PM 39.6797 -75.4292 53° Northeast 430 495 28,200 1,380 Climbing New York Center
10:47PM 39.7511 -75.3044 53° Northeast 430 495 29,000 360 Climbing New York Center
10:48PM 39.8292 -75.1742 52° Northeast 441 507 29,000  Level New York Center
10:49PM 39.9053 -75.0275 56° Northeast 465 535 29,000  Level New York Center
10:50PM 39.9786 -74.9019 53° Northeast 484 557 29,000  Level New York Center
10:51PM 40.0522 -74.7653 55° Northeast 478 550 29,000  Level New York Center
10:52PM 40.1425 -74.6158 52° Northeast 478 550 29,000  Level New York Center
10:53PM 40.2511 -74.5456 26° Northeast 464 534 29,000  Level New York Center
10:54PM 40.3794 -74.5064 13° North 457 526 29,000  Level New York Center
10:55PM 40.5056 -74.4722 12° North 457 526 29,000  Level New York Center
10:56PM 40.6339 -74.4353 12° North 457 526 29,000 -60 Level New York Center
10:57PM 40.7600 -74.3983 13° North 457 526 28,900 -780 Descending New York Center
11:00PM 41.0781 -74.3125 11° North 449 517 26,500 -900 Descending Boston Center
11:01PM 41.1933 -74.2772 13° North 434 499 26,000 -300 Descending Boston Center
11:02PM 41.2981 -74.2417 14° North 427 491 26,000  Level Boston Center
11:03PM 41.4217 -74.2064 12° North 427 491 26,000  Level Boston Center
11:04PM 41.5597 -74.1656 12° North 444 511 26,000  Level Boston Center
11:05PM 41.6814 -74.1272 13° North 454 522 26,000  Level Boston Center
11:06PM 41.7775 -74.0992 12° North 448 516 26,000  Level Boston Center
11:07PM 41.9178 -74.0583 12° North 435 501 26,000  Level Boston Center
11:08PM 42.0392 -74.0222 12° North 435 501 26,000  Level Boston Center
11:09PM 42.1647 -73.9864 12° North 440 506 26,000  Level Boston Center
11:10PM 42.2861 -73.9500 13° North 445 512 26,000 -600 Level Boston Center
11:11PM 42.3950 -73.9161 13° North 437 503 24,800 -1,800 Descending Boston Center
11:12PM 42.5017 -73.8819 13° North 411 473 22,400 -2,220 Descending Boston Center
11:13PM 42.5872 -73.8811 360° North 391 450 20,400 -2,520 Descending Boston Center
11:14PM 42.7058 -73.8839 359° North 368 423 17,400 -2,880 Descending Boston Center
11:15PM 42.7956 -73.8861 359° North 343 395 14,700 -2,700 Descending Boston Center
11:16PM 42.8811 -73.8850 North 319 367 12,000 -2,520 Descending Boston Center
11:17PM 42.9539 -73.8897 357° North 292 336 9,700 -2,580 Descending Boston Center
11:18PM 43.0192 -73.8372 30° Northeast 246 283 6,900 -2,700 Descending Boston Center
11:19PM 43.0078 -73.7433 99° East 226 260 4,300 -1,800 Descending Boston Center
11:20PM 42.9492 -73.7564 189° South 153 176 3,400 -960 Descending Boston Center
11:21PM 42.8822 -73.7944 203° Southwest 160 184 2,300 -600 Descending Boston Center
11:22PM 42.8342 -73.8047 189° South 171 197 2,100 10,800 Descending Boston Center
11:23PM 42.7881 -73.8178 192° South 171 197 24,000 10,920 Climbing Boston Center
11:24PM 42.7400 -73.8308 191° South 171 197 24,000  Level Boston Center
11:25PM 42.6939 -73.8439 192° South 171 197 24,000  Level Boston Center
11:26PM 42.6750 -73.8492 192° South 171 197 24,000  Level Boston Center